createdAt,value
2019-02-07T00:00:00.464Z,99157.43
2019-02-07T00:01:03.530Z,99157.43
2019-02-07T00:02:04.796Z,99164.44
2019-02-07T00:03:06.316Z,99172.42
2019-02-07T00:04:07.554Z,99161.78
2019-02-07T00:05:09.038Z,99168.77
2019-02-07T00:06:11.620Z,99163.44
2019-02-07T00:07:13.002Z,99162.11
2019-02-07T00:08:14.268Z,99155.94
2019-02-07T00:09:15.527Z,99155.94
2019-02-07T00:10:20.178Z,99156.78
2019-02-07T00:11:21.453Z,99150.94
2019-02-07T00:12:22.960Z,99151.30
2019-02-07T00:13:24.395Z,99153.95
2019-02-07T00:14:25.833Z,99150.45
2019-02-07T00:15:27.356Z,99156.63
2019-02-07T00:16:28.650Z,99141.98
2019-02-07T00:17:29.881Z,99145.45
2019-02-07T00:18:31.155Z,99150.30
2019-02-07T00:19:33.142Z,99150.30
2019-02-07T00:20:34.322Z,99148.12
2019-02-07T00:21:35.817Z,99139.64
2019-02-07T00:22:39.233Z,99140.13
2019-02-07T00:23:40.467Z,99138.31
2019-02-07T00:24:43.196Z,99144.45
2019-02-07T00:25:44.781Z,99135.66
2019-02-07T00:26:46.085Z,99138.80
2019-02-07T00:27:47.325Z,99138.80
2019-02-07T00:28:48.747Z,99138.31
2019-02-07T00:29:50.373Z,99141.30
2019-02-07T00:30:51.601Z,99141.30
2019-02-07T00:31:52.956Z,99139.45
2019-02-07T00:32:54.310Z,99138.97
2019-02-07T00:33:55.564Z,99134.32
2019-02-07T00:34:57.270Z,99134.32
2019-02-07T00:35:58.786Z,99137.80
2019-02-07T00:37:00.238Z,99129.81
2019-02-07T00:38:01.566Z,99129.81
2019-02-07T00:39:05.282Z,99124.16
2019-02-07T00:40:10.014Z,99124.16
2019-02-07T00:41:11.342Z,99129.16
2019-02-07T00:42:12.593Z,99129.16
2019-02-07T00:43:14.864Z,99127.34
2019-02-07T00:44:16.657Z,99131.33
2019-02-07T00:45:18.728Z,99126.50
2019-02-07T00:46:19.994Z,99126.50
2019-02-07T00:47:21.357Z,99122.99
2019-02-07T00:48:22.714Z,99122.18
2019-02-07T00:49:24.494Z,99126.66
2019-02-07T00:50:25.691Z,99123.67
2019-02-07T00:51:27.103Z,99125.33
2019-02-07T00:52:28.288Z,99126.02
2019-02-07T00:53:29.469Z,99126.02
2019-02-07T00:54:33.148Z,99125.17
2019-02-07T00:55:34.333Z,99121.50
2019-02-07T00:56:35.756Z,99122.34
2019-02-07T00:57:36.968Z,99119.69
2019-02-07T00:58:38.527Z,99119.69
2019-02-07T00:59:40.318Z,99121.02
2019-02-07T01:00:41.557Z,99122.50
2019-02-07T01:01:42.905Z,99122.50
2019-02-07T01:02:44.271Z,99121.02
2019-02-07T01:03:45.449Z,99115.36
2019-02-07T01:04:53.722Z,99117.02
2019-02-07T01:05:55.001Z,99113.19
2019-02-07T01:06:56.242Z,99113.19
2019-02-07T01:07:57.570Z,99104.88
2019-02-07T01:08:58.995Z,99104.88
2019-02-07T01:10:00.568Z,99111.05
2019-02-07T01:11:01.803Z,99111.05
2019-02-07T01:12:03.759Z,99108.03
2019-02-07T01:13:04.991Z,99108.87
2019-02-07T01:14:06.338Z,99108.87
2019-02-07T01:15:09.909Z,99100.89
2019-02-07T01:16:11.403Z,99094.56
2019-02-07T01:17:12.586Z,99100.41
2019-02-07T01:18:13.972Z,99100.41
2019-02-07T01:19:15.187Z,99091.90
2019-02-07T01:20:16.716Z,99093.55
2019-02-07T01:21:18.000Z,99091.73
2019-02-07T01:22:19.525Z,99087.74
2019-02-07T01:23:21.113Z,99087.74
2019-02-07T01:24:22.319Z,99087.74
2019-02-07T01:25:24.112Z,99081.41
2019-02-07T01:26:25.534Z,99087.58
2019-02-07T01:27:26.818Z,99080.41
2019-02-07T01:28:28.007Z,99086.73
2019-02-07T01:29:29.678Z,99081.41
2019-02-07T01:30:30.914Z,99081.93
2019-02-07T01:31:32.096Z,99079.76
2019-02-07T01:32:33.277Z,99075.77
2019-02-07T01:33:36.128Z,99084.08
2019-02-07T01:34:37.331Z,99079.27
2019-02-07T01:35:38.517Z,99075.44
2019-02-07T01:36:39.842Z,99072.78
2019-02-07T01:37:41.090Z,99072.78
2019-02-07T01:38:42.754Z,99069.80
2019-02-07T01:39:44.047Z,99069.80
2019-02-07T01:40:45.534Z,99065.97
2019-02-07T01:41:47.933Z,99069.11
2019-02-07T01:42:49.766Z,99066.45
2019-02-07T01:43:51.118Z,99063.80
2019-02-07T01:44:52.412Z,99064.64
2019-02-07T01:45:53.743Z,99062.78
2019-02-07T01:46:55.159Z,99057.98
2019-02-07T01:47:56.823Z,99053.31
2019-02-07T01:48:58.247Z,99055.97
2019-02-07T01:49:59.411Z,99052.50
2019-02-07T01:51:00.763Z,99050.33
2019-02-07T01:52:05.054Z,99050.33
2019-02-07T01:53:06.596Z,99044.19
2019-02-07T01:54:07.898Z,99047.02
2019-02-07T01:55:09.103Z,99044.84
2019-02-07T01:56:10.776Z,99041.86
2019-02-07T01:57:12.253Z,99030.41
2019-02-07T01:58:13.936Z,99037.87
2019-02-07T01:59:15.428Z,99034.56
2019-02-07T02:00:17.621Z,99031.58
2019-02-07T02:01:19.121Z,99030.73
2019-02-07T02:02:20.332Z,99026.91
2019-02-07T02:03:21.653Z,99028.75
2019-02-07T02:04:22.848Z,99027.27
2019-02-07T02:05:24.141Z,99022.75
2019-02-07T02:06:25.662Z,99023.59
2019-02-07T02:07:27.824Z,99023.27
2019-02-07T02:08:28.984Z,99023.27
2019-02-07T02:09:30.625Z,99020.93
2019-02-07T02:10:31.931Z,99020.61
2019-02-07T02:11:33.140Z,99013.27
2019-02-07T02:12:34.428Z,99006.78
2019-02-07T02:13:35.665Z,99016.25
2019-02-07T02:14:37.469Z,99013.11
2019-02-07T02:15:38.809Z,99013.11
2019-02-07T02:16:40.587Z,99012.09
2019-02-07T02:17:41.833Z,99005.92
2019-02-07T02:18:42.994Z,99009.23
2019-02-07T02:19:44.510Z,99002.91
2019-02-07T02:20:45.717Z,99002.91
2019-02-07T02:21:47.032Z,99010.56
2019-02-07T02:22:48.211Z,99003.58
2019-02-07T02:23:49.772Z,99005.56
2019-02-07T02:24:51.290Z,99009.06
2019-02-07T02:25:52.917Z,99005.56
2019-02-07T02:26:55.380Z,99004.55
2019-02-07T02:27:57.176Z,99004.55
2019-02-07T02:28:58.800Z,99006.72
2019-02-07T02:30:00.094Z,99007.89
2019-02-07T02:31:01.566Z,99007.89
2019-02-07T02:32:03.205Z,99005.72
2019-02-07T02:33:04.704Z,99003.90
2019-02-07T02:34:05.895Z,99003.90
2019-02-07T02:35:07.088Z,98998.89
2019-02-07T02:36:08.962Z,99005.03
2019-02-07T02:37:10.146Z,99006.36
2019-02-07T02:38:11.838Z,99001.88
2019-02-07T02:39:13.800Z,99001.88
2019-02-07T02:40:15.077Z,99001.88
2019-02-07T02:41:17.519Z,98998.05
2019-02-07T02:42:18.848Z,98998.38
2019-02-07T02:43:20.385Z,98994.91
2019-02-07T02:44:21.614Z,98994.38
2019-02-07T02:45:36.621Z,98993.05
2019-02-07T02:46:27.079Z,98992.24
2019-02-07T02:47:28.423Z,98987.23
2019-02-07T02:48:29.701Z,98987.23
2019-02-07T02:49:31.093Z,98980.27
2019-02-07T02:50:32.347Z,98980.27
2019-02-07T02:51:33.615Z,98983.73
2019-02-07T02:52:35.023Z,98984.26
2019-02-07T02:53:36.291Z,98981.92
2019-02-07T02:54:39.839Z,98987.56
2019-02-07T02:55:42.792Z,98978.41
2019-02-07T02:56:44.167Z,98981.92
2019-02-07T02:57:45.357Z,98977.08
2019-02-07T02:58:46.573Z,98978.77
2019-02-07T02:59:47.791Z,98976.27
2019-02-07T03:00:59.760Z,98980.09
2019-02-07T03:02:19.734Z,98978.41
2019-02-07T03:03:23.416Z,98978.41
2019-02-07T03:04:26.641Z,98970.30
2019-02-07T03:05:32.851Z,98970.47
2019-02-07T03:06:39.038Z,98973.30
2019-02-07T03:07:54.589Z,98978.63
2019-02-07T03:09:00.963Z,98978.63
2019-02-07T03:10:13.690Z,98973.98
2019-02-07T03:11:16.898Z,98968.66
2019-02-07T03:12:20.514Z,98968.66
2019-02-07T03:13:40.046Z,98968.30
2019-02-07T03:14:49.254Z,98971.48
2019-02-07T03:16:04.531Z,98968.83
2019-02-07T03:17:10.467Z,98968.83
2019-02-07T03:18:13.560Z,98966.66
2019-02-07T03:19:19.454Z,98962.34
2019-02-07T03:20:23.098Z,98963.67
2019-02-07T03:21:35.441Z,98971.66
2019-02-07T03:22:47.544Z,98959.84
2019-02-07T03:24:02.572Z,98960.84
2019-02-07T03:25:19.237Z,98967.67
2019-02-07T03:26:34.571Z,98962.02
2019-02-07T03:27:43.868Z,98960.69
2019-02-07T03:29:03.729Z,98961.70
2019-02-07T03:30:26.883Z,98964.36
2019-02-07T03:31:32.989Z,98964.36
2019-02-07T03:32:54.511Z,98960.86
2019-02-07T03:34:12.782Z,98958.88
2019-02-07T03:35:18.879Z,98959.56
2019-02-07T03:36:21.979Z,98957.72
2019-02-07T03:37:25.084Z,98956.23
2019-02-07T03:38:28.337Z,98960.58
2019-02-07T03:39:34.499Z,98955.25
2019-02-07T03:40:52.863Z,98962.23
2019-02-07T03:42:01.511Z,98962.23
2019-02-07T03:43:23.088Z,98957.07
2019-02-07T03:44:26.206Z,98954.09
2019-02-07T03:45:32.278Z,98954.90
2019-02-07T03:46:35.397Z,98954.90
2019-02-07T03:47:47.547Z,98951.42
2019-02-07T03:48:53.701Z,98951.42
2019-02-07T03:49:57.325Z,98954.09
2019-02-07T03:51:12.245Z,98962.23
2019-02-07T03:52:30.580Z,98949.77
2019-02-07T03:53:40.040Z,98954.25
2019-02-07T03:54:49.181Z,98956.07
2019-02-07T03:55:52.260Z,98956.07
2019-02-07T03:56:55.649Z,98948.61
2019-02-07T03:58:02.528Z,98948.09
2019-02-07T03:59:20.668Z,98953.41
2019-02-07T04:00:40.655Z,98946.44
2019-02-07T04:01:43.756Z,98939.46
2019-02-07T04:02:49.591Z,98942.97
2019-02-07T04:04:09.158Z,98943.78
2019-02-07T04:05:12.268Z,98939.95
2019-02-07T04:06:30.640Z,98944.46
2019-02-07T04:07:36.608Z,98944.95
2019-02-07T04:08:42.443Z,98941.48
2019-02-07T04:09:51.642Z,98941.48
2019-02-07T04:10:57.823Z,98937.48
2019-02-07T04:12:00.968Z,98941.80
2019-02-07T04:13:04.142Z,98945.62
2019-02-07T04:14:16.491Z,98933.66
2019-02-07T04:15:35.971Z,98934.14
2019-02-07T04:16:47.816Z,98934.14
2019-02-07T04:17:56.742Z,98933.82
2019-02-07T04:19:06.068Z,98933.82
2019-02-07T04:20:14.328Z,98930.00
2019-02-07T04:21:26.486Z,98927.02
2019-02-07T04:22:29.756Z,98922.18
2019-02-07T04:23:50.475Z,98921.69
2019-02-07T04:25:10.425Z,98922.18
2019-02-07T04:26:25.924Z,98917.18
2019-02-07T04:27:29.122Z,98919.84
2019-02-07T04:28:44.473Z,98914.52
2019-02-07T04:29:56.666Z,98920.00
2019-02-07T04:31:05.894Z,98920.84
2019-02-07T04:32:26.042Z,98920.84
2019-02-07T04:33:29.266Z,98911.53
2019-02-07T04:34:35.155Z,98915.52
2019-02-07T04:35:44.379Z,98915.52
2019-02-07T04:36:50.637Z,98909.36
2019-02-07T04:37:54.379Z,98910.20
2019-02-07T04:39:09.689Z,98906.20
2019-02-07T04:40:22.191Z,98904.03
2019-02-07T04:41:43.693Z,98904.03
2019-02-07T04:43:04.025Z,98908.02
2019-02-07T04:44:25.105Z,98905.88
2019-02-07T04:45:45.104Z,98903.87
2019-02-07T04:47:04.571Z,98902.23
2019-02-07T04:48:07.862Z,98901.42
2019-02-07T04:49:29.248Z,98901.42
2019-02-07T04:50:38.663Z,98903.23
2019-02-07T04:51:50.827Z,98902.91
2019-02-07T04:53:00.328Z,98906.41
2019-02-07T04:54:03.777Z,98906.41
2019-02-07T04:55:13.362Z,98904.08
2019-02-07T04:56:22.724Z,98904.56
2019-02-07T04:57:44.073Z,98892.59
2019-02-07T04:58:59.374Z,98896.58
2019-02-07T05:00:02.690Z,98896.58
2019-02-07T05:01:10.157Z,98883.30
2019-02-07T05:02:30.112Z,98888.61
2019-02-07T05:03:51.700Z,98892.59
2019-02-07T05:05:07.132Z,98881.63
2019-02-07T05:06:28.056Z,98885.95
2019-02-07T05:07:37.336Z,98881.31
2019-02-07T05:08:40.703Z,98881.63
2019-02-07T05:09:46.820Z,98873.65
2019-02-07T05:10:50.127Z,98879.81
2019-02-07T05:11:56.017Z,98873.16
2019-02-07T05:13:05.609Z,98872.96
2019-02-07T05:14:20.819Z,98872.96
2019-02-07T05:15:39.151Z,98867.84
2019-02-07T05:16:43.767Z,98867.84
2019-02-07T05:17:52.868Z,98869.98
2019-02-07T05:18:56.011Z,98868.65
2019-02-07T05:19:59.307Z,98863.66
2019-02-07T05:21:11.383Z,98861.83
2019-02-07T05:22:23.494Z,98861.83
2019-02-07T05:23:45.477Z,98859.49
2019-02-07T05:24:48.709Z,98855.83
2019-02-07T05:25:54.962Z,98859.00
2019-02-07T05:26:58.037Z,98853.69
2019-02-07T05:28:08.116Z,98854.01
2019-02-07T05:29:14.031Z,98853.48
2019-02-07T05:30:17.415Z,98853.31
2019-02-07T05:31:23.529Z,98858.64
2019-02-07T05:32:43.080Z,98859.80
2019-02-07T05:34:01.551Z,98854.97
2019-02-07T05:35:23.910Z,98860.64
2019-02-07T05:36:33.325Z,98860.64
2019-02-07T05:37:42.974Z,98857.98
2019-02-07T05:38:52.492Z,98858.80
2019-02-07T05:39:58.568Z,98854.00
2019-02-07T05:41:11.009Z,98862.62
2019-02-07T05:42:14.474Z,98856.45
2019-02-07T05:43:20.949Z,98856.45
2019-02-07T05:44:34.432Z,98858.95
2019-02-07T05:45:38.269Z,98861.93
2019-02-07T05:46:51.158Z,98859.59
2019-02-07T05:47:57.441Z,98859.59
2019-02-07T05:49:06.638Z,98859.59
2019-02-07T05:50:27.576Z,98861.93
2019-02-07T05:51:40.005Z,98860.59
2019-02-07T05:52:43.176Z,98856.81
2019-02-07T05:54:02.733Z,98856.81
2019-02-07T05:55:07.424Z,98853.30
2019-02-07T05:56:22.870Z,98848.83
2019-02-07T05:57:31.666Z,98852.62
2019-02-07T05:58:50.049Z,98847.81
2019-02-07T05:59:59.428Z,98858.14
2019-02-07T06:01:08.097Z,98858.14
2019-02-07T06:02:17.617Z,98851.33
2019-02-07T06:03:32.570Z,98858.80
2019-02-07T06:04:50.512Z,98855.81
2019-02-07T06:06:08.720Z,98855.81
2019-02-07T06:07:29.764Z,98852.14
2019-02-07T06:08:32.870Z,98852.14
2019-02-07T06:09:42.034Z,98850.00
2019-02-07T06:10:45.182Z,98847.14
2019-02-07T06:11:57.496Z,98849.48
2019-02-07T06:13:00.794Z,98848.99
2019-02-07T06:14:20.489Z,98844.69
2019-02-07T06:15:41.587Z,98843.35
2019-02-07T06:17:02.852Z,98848.84
2019-02-07T06:18:04.854Z,98848.52
2019-02-07T06:19:26.439Z,98844.53
2019-02-07T06:20:30.081Z,98845.50
2019-02-07T06:21:39.033Z,98841.52
2019-02-07T06:22:45.081Z,98852.52
2019-02-07T06:23:54.465Z,98850.02
2019-02-07T06:24:57.579Z,98846.34
2019-02-07T06:26:17.513Z,98850.17
2019-02-07T06:27:37.178Z,98850.17
2019-02-07T06:29:00.033Z,98849.65
2019-02-07T06:30:19.966Z,98845.86
2019-02-07T06:31:29.605Z,98849.01
2019-02-07T06:32:51.058Z,98845.34
2019-02-07T06:34:00.683Z,98844.01
2019-02-07T06:35:07.883Z,98844.01
2019-02-07T06:36:17.633Z,98842.02
2019-02-07T06:37:30.333Z,98843.99
2019-02-07T06:38:33.667Z,98844.14
2019-02-07T06:39:37.638Z,98840.97
2019-02-07T06:40:40.873Z,98844.95
2019-02-07T06:41:59.139Z,98837.33
2019-02-07T06:43:18.284Z,98837.65
2019-02-07T06:44:21.508Z,98838.81
2019-02-07T06:45:31.013Z,98844.94
2019-02-07T06:46:46.300Z,98842.28
2019-02-07T06:47:52.734Z,98847.92
2019-02-07T06:48:58.828Z,98845.27
2019-02-07T06:50:01.970Z,98842.60
2019-02-07T06:51:05.678Z,98834.97
2019-02-07T06:52:21.160Z,98840.61
2019-02-07T06:53:30.438Z,98840.61
2019-02-07T06:54:42.746Z,98840.61
2019-02-07T06:56:02.494Z,98837.63
2019-02-07T06:57:20.944Z,98839.45
2019-02-07T06:58:27.019Z,98831.47
2019-02-07T06:59:33.454Z,98825.30
2019-02-07T07:00:36.522Z,98825.66
2019-02-07T07:01:42.488Z,98829.45
2019-02-07T07:02:45.578Z,98829.45
2019-02-07T07:03:48.747Z,98824.97
2019-02-07T07:05:10.990Z,98826.94
2019-02-07T07:06:14.130Z,98830.93
2019-02-07T07:07:17.266Z,98826.28
2019-02-07T07:08:33.117Z,98827.93
2019-02-07T07:09:42.210Z,98820.95
2019-02-07T07:10:51.116Z,98820.95
2019-02-07T07:12:00.001Z,98818.94
2019-02-07T07:13:18.144Z,98815.78
2019-02-07T07:14:21.291Z,98813.77
2019-02-07T07:15:41.483Z,98813.77
2019-02-07T07:16:56.659Z,98815.94
2019-02-07T07:18:08.841Z,98812.92
2019-02-07T07:19:18.029Z,98813.93
2019-02-07T07:20:37.403Z,98813.93
2019-02-07T07:21:49.361Z,98816.91
2019-02-07T07:22:52.512Z,98809.94
2019-02-07T07:23:58.673Z,98808.29
2019-02-07T07:25:04.706Z,98803.28
2019-02-07T07:26:24.231Z,98813.44
2019-02-07T07:27:42.636Z,98811.59
2019-02-07T07:28:51.499Z,98815.58
2019-02-07T07:30:01.009Z,98815.58
2019-02-07T07:31:22.379Z,98805.63
2019-02-07T07:32:31.307Z,98811.44
2019-02-07T07:33:37.103Z,98813.30
2019-02-07T07:34:58.869Z,98814.30
2019-02-07T07:36:02.113Z,98813.30
2019-02-07T07:37:08.207Z,98813.30
2019-02-07T07:38:14.025Z,98813.61
2019-02-07T07:39:20.196Z,98811.27
2019-02-07T07:40:35.684Z,98811.27
2019-02-07T07:41:49.478Z,98810.27
2019-02-07T07:43:04.720Z,98806.63
2019-02-07T07:44:23.045Z,98805.92
2019-02-07T07:45:29.069Z,98802.58
2019-02-07T07:46:41.184Z,98805.55
2019-02-07T07:48:00.982Z,98802.58
2019-02-07T07:49:19.004Z,98807.23
2019-02-07T07:50:24.780Z,98807.55
2019-02-07T07:51:30.531Z,98811.55
2019-02-07T07:52:36.558Z,98811.55
2019-02-07T07:53:40.084Z,98799.40
2019-02-07T07:54:49.284Z,98801.54
2019-02-07T07:56:01.283Z,98800.21
2019-02-07T07:57:07.252Z,98800.21
2019-02-07T07:58:12.918Z,98795.58
2019-02-07T07:59:32.352Z,98795.58
2019-02-07T08:00:41.041Z,98800.53
2019-02-07T08:01:47.146Z,98803.19
2019-02-07T08:02:56.095Z,98803.19
2019-02-07T08:04:01.922Z,98804.35
2019-02-07T08:05:09.957Z,98804.03
2019-02-07T08:06:13.130Z,98804.03
2019-02-07T08:07:25.382Z,98803.86
2019-02-07T08:08:31.181Z,98799.52
2019-02-07T08:09:34.467Z,98793.53
2019-02-07T08:10:43.524Z,98799.17
2019-02-07T08:11:58.865Z,98796.02
2019-02-07T08:13:18.480Z,98794.69
2019-02-07T08:14:21.608Z,98794.69
2019-02-07T08:15:33.665Z,98788.53
2019-02-07T08:16:40.035Z,98795.19
2019-02-07T08:17:48.975Z,98793.85
2019-02-07T08:18:52.167Z,98796.52
2019-02-07T08:20:12.134Z,98789.86
2019-02-07T08:21:34.160Z,98797.36
2019-02-07T08:22:52.552Z,98792.20
2019-02-07T08:23:56.422Z,98784.22
2019-02-07T08:24:59.537Z,98785.55
2019-02-07T08:26:19.943Z,98784.22
2019-02-07T08:27:23.430Z,98784.22
2019-02-07T08:28:44.615Z,98788.53
2019-02-07T08:30:03.222Z,98788.53
2019-02-07T08:31:09.029Z,98787.52
2019-02-07T08:32:29.405Z,98784.85
2019-02-07T08:33:49.045Z,98783.52
2019-02-07T08:34:54.038Z,98783.52
2019-02-07T08:36:13.856Z,98776.87
2019-02-07T08:37:16.948Z,98776.06
2019-02-07T08:38:29.369Z,98775.05
2019-02-07T08:39:47.826Z,98777.54
2019-02-07T08:41:07.482Z,98782.86
2019-02-07T08:42:10.800Z,98772.21
2019-02-07T08:43:16.706Z,98774.35
2019-02-07T08:44:32.000Z,98782.48
2019-02-07T08:45:41.181Z,98782.48
2019-02-07T08:46:50.911Z,98776.98
2019-02-07T08:48:04.030Z,98774.67
2019-02-07T08:49:10.675Z,98776.84
2019-02-07T08:50:16.828Z,98770.52
2019-02-07T08:51:22.884Z,98768.69
2019-02-07T08:52:42.421Z,98771.84
2019-02-07T08:53:51.861Z,98771.84
2019-02-07T08:55:12.172Z,98770.83
2019-02-07T08:56:32.122Z,98771.15
2019-02-07T08:57:41.264Z,98762.84
2019-02-07T08:58:50.634Z,98763.48
2019-02-07T08:59:53.777Z,98767.47
2019-02-07T09:01:05.730Z,98764.81
2019-02-07T09:02:08.881Z,98761.97
2019-02-07T09:03:14.871Z,98768.14
2019-02-07T09:04:24.254Z,98768.45
2019-02-07T09:05:33.565Z,98760.30
2019-02-07T09:06:36.762Z,98760.78
2019-02-07T09:07:48.930Z,98764.29
2019-02-07T09:08:58.018Z,98765.10
2019-02-07T09:10:01.515Z,98758.44
2019-02-07T09:11:13.573Z,98757.43
2019-02-07T09:12:23.005Z,98765.56
2019-02-07T09:13:26.518Z,98762.41
2019-02-07T09:14:29.989Z,98760.06
2019-02-07T09:15:42.193Z,98756.38
2019-02-07T09:16:45.586Z,98761.05
2019-02-07T09:17:49.185Z,98757.37
2019-02-07T09:18:52.271Z,98754.19
2019-02-07T09:20:01.313Z,98755.02
2019-02-07T09:21:11.816Z,98756.67
2019-02-07T09:22:15.192Z,98756.98
2019-02-07T09:23:21.240Z,98755.66
2019-02-07T09:24:27.513Z,98752.19
2019-02-07T09:25:36.359Z,98752.19
2019-02-07T09:26:57.517Z,98756.67
2019-02-07T09:28:06.587Z,98748.37
2019-02-07T09:29:12.903Z,98745.21
2019-02-07T09:30:27.589Z,98748.69
2019-02-07T09:31:39.974Z,98751.66
2019-02-07T09:32:59.848Z,98748.37
2019-02-07T09:34:15.217Z,98751.03
2019-02-07T09:35:21.463Z,98751.03
2019-02-07T09:36:36.796Z,98749.70
2019-02-07T09:37:58.112Z,98750.19
2019-02-07T09:39:01.443Z,98749.20
2019-02-07T09:40:18.997Z,98742.55
2019-02-07T09:41:22.122Z,98740.69
2019-02-07T09:42:31.286Z,98742.02
2019-02-07T09:43:43.433Z,98742.02
2019-02-07T09:45:03.223Z,98737.02
2019-02-07T09:46:24.761Z,98737.02
2019-02-07T09:47:27.885Z,98732.84
2019-02-07T09:48:47.927Z,98729.86
2019-02-07T09:49:54.166Z,98731.83
2019-02-07T09:51:06.259Z,98737.50
2019-02-07T09:52:12.525Z,98726.33
2019-02-07T09:53:31.071Z,98732.67
2019-02-07T09:54:46.618Z,98731.34
2019-02-07T09:56:06.375Z,98727.52
2019-02-07T09:57:27.737Z,98727.52
2019-02-07T09:58:40.037Z,98727.69
2019-02-07T09:59:46.251Z,98731.02
2019-02-07T10:00:49.541Z,98724.19
2019-02-07T10:02:04.967Z,98730.33
2019-02-07T10:03:24.724Z,98722.16
2019-02-07T10:04:44.551Z,98715.01
2019-02-07T10:05:47.641Z,98717.98
2019-02-07T10:07:09.142Z,98715.33
2019-02-07T10:08:28.631Z,98712.14
2019-02-07T10:09:32.089Z,98713.47
2019-02-07T10:10:35.263Z,98709.30
2019-02-07T10:11:55.187Z,98707.80
2019-02-07T10:13:13.910Z,98704.11
2019-02-07T10:14:32.289Z,98710.59
2019-02-07T10:15:51.969Z,98704.75
2019-02-07T10:16:58.083Z,98708.56
2019-02-07T10:18:01.197Z,98702.22
2019-02-07T10:19:20.855Z,98702.22
2019-02-07T10:20:26.924Z,98704.39
2019-02-07T10:21:42.552Z,98695.70
2019-02-07T10:22:46.385Z,98697.55
2019-02-07T10:23:55.306Z,98695.52
2019-02-07T10:25:04.404Z,98686.69
2019-02-07T10:26:16.425Z,98689.18
2019-02-07T10:27:19.650Z,98689.18
2019-02-07T10:28:25.878Z,98685.00
2019-02-07T10:29:41.237Z,98679.99
2019-02-07T10:31:01.199Z,98676.52
2019-02-07T10:32:20.858Z,98679.50
2019-02-07T10:33:24.017Z,98671.50
2019-02-07T10:34:43.768Z,98667.51
2019-02-07T10:35:55.854Z,98667.51
2019-02-07T10:37:15.868Z,98662.81
2019-02-07T10:38:24.971Z,98664.98
2019-02-07T10:39:31.220Z,98664.98
2019-02-07T10:40:34.714Z,98657.80
2019-02-07T10:41:38.266Z,98654.12
2019-02-07T10:42:50.420Z,98651.98
2019-02-07T10:44:02.503Z,98652.61
2019-02-07T10:45:21.851Z,98652.61
2019-02-07T10:46:42.023Z,98651.27
2019-02-07T10:47:45.543Z,98651.09
2019-02-07T10:49:00.867Z,98637.77
2019-02-07T10:50:07.319Z,98639.94
2019-02-07T10:51:10.649Z,98636.44
2019-02-07T10:52:14.019Z,98637.06
2019-02-07T10:53:17.375Z,98636.89
2019-02-07T10:54:37.729Z,98635.55
2019-02-07T10:55:57.891Z,98635.55
2019-02-07T10:57:03.736Z,98629.21
2019-02-07T10:58:26.023Z,98626.86
2019-02-07T10:59:45.901Z,98623.39
2019-02-07T11:00:55.033Z,98629.21
2019-02-07T11:02:13.357Z,98629.21
2019-02-07T11:03:16.430Z,98619.70
2019-02-07T11:04:31.648Z,98617.04
2019-02-07T11:05:37.819Z,98617.04
2019-02-07T11:06:52.783Z,98607.01
2019-02-07T11:07:56.017Z,98609.49
2019-02-07T11:09:02.644Z,98601.50
2019-02-07T11:10:30.146Z,98607.66
2019-02-07T11:11:39.668Z,98598.34
2019-02-07T11:12:55.173Z,98598.34
2019-02-07T11:13:58.357Z,98597.01
2019-02-07T11:15:01.576Z,98591.99
2019-02-07T11:16:24.604Z,98599.48
2019-02-07T11:17:46.154Z,98587.81
2019-02-07T11:18:58.374Z,98585.64
2019-02-07T11:20:04.316Z,98585.64
2019-02-07T11:21:13.522Z,98581.33
2019-02-07T11:22:16.612Z,98584.31
2019-02-07T11:23:26.232Z,98577.65
2019-02-07T11:24:32.149Z,98584.97
2019-02-07T11:25:35.329Z,98573.78
2019-02-07T11:26:47.580Z,98572.27
2019-02-07T11:27:53.500Z,98572.27
2019-02-07T11:29:13.303Z,98569.60
2019-02-07T11:30:18.137Z,98569.60
2019-02-07T11:31:24.582Z,98577.91
2019-02-07T11:32:30.857Z,98577.91
2019-02-07T11:33:40.069Z,98563.44
2019-02-07T11:35:00.043Z,98563.44
2019-02-07T11:36:12.440Z,98563.75
2019-02-07T11:37:18.685Z,98562.10
2019-02-07T11:38:24.852Z,98563.25
2019-02-07T11:39:31.218Z,98563.25
2019-02-07T11:40:52.406Z,98564.09
2019-02-07T11:41:58.449Z,98561.21
2019-02-07T11:43:18.296Z,98555.08
2019-02-07T11:44:30.698Z,98563.07
2019-02-07T11:45:36.954Z,98563.07
2019-02-07T11:46:43.215Z,98558.55
2019-02-07T11:47:52.609Z,98555.88
2019-02-07T11:49:07.629Z,98555.88
2019-02-07T11:50:20.067Z,98550.55
2019-02-07T11:51:38.725Z,98552.23
2019-02-07T11:52:48.221Z,98548.72
2019-02-07T11:54:06.640Z,98541.04
2019-02-07T11:55:09.895Z,98546.89
2019-02-07T11:56:13.695Z,98546.89
2019-02-07T11:57:25.921Z,98544.55
2019-02-07T11:58:32.445Z,98544.55
2019-02-07T11:59:44.955Z,98535.53
2019-02-07T12:01:05.020Z,98535.53
2019-02-07T12:02:14.211Z,98537.70
2019-02-07T12:03:26.592Z,98534.19
2019-02-07T12:04:29.736Z,98533.57
2019-02-07T12:05:34.561Z,98529.70
2019-02-07T12:06:43.462Z,98529.70
2019-02-07T12:07:46.568Z,98530.20
2019-02-07T12:08:52.903Z,98527.84
2019-02-07T12:10:08.215Z,98527.84
2019-02-07T12:11:17.588Z,98529.52
2019-02-07T12:12:38.408Z,98522.05
2019-02-07T12:13:41.499Z,98528.71
2019-02-07T12:14:56.458Z,98528.71
2019-02-07T12:15:59.749Z,98525.52
2019-02-07T12:17:11.723Z,98512.19
2019-02-07T12:18:14.818Z,98517.84
2019-02-07T12:19:20.805Z,98508.85
2019-02-07T12:20:23.931Z,98508.85
2019-02-07T12:21:27.317Z,98506.50
2019-02-07T12:22:31.155Z,98502.81
2019-02-07T12:23:39.999Z,98502.81
2019-02-07T12:24:46.299Z,98502.81
2019-02-07T12:25:52.959Z,98505.78
2019-02-07T12:26:59.063Z,98504.14
2019-02-07T12:28:02.278Z,98504.14
2019-02-07T12:29:23.327Z,98498.09
2019-02-07T12:30:43.373Z,98500.77
2019-02-07T12:32:03.427Z,98496.77
2019-02-07T12:33:12.444Z,98496.14
2019-02-07T12:34:32.045Z,98496.45
2019-02-07T12:35:38.279Z,98493.48
2019-02-07T12:36:44.423Z,98494.50
2019-02-07T12:37:50.165Z,98492.33
2019-02-07T12:38:56.265Z,98493.17
2019-02-07T12:40:11.752Z,98486.50
2019-02-07T12:41:27.304Z,98486.50
2019-02-07T12:42:30.777Z,98488.15
2019-02-07T12:43:50.457Z,98486.81
2019-02-07T12:45:10.283Z,98498.31
2019-02-07T12:46:30.329Z,98491.13
2019-02-07T12:47:33.634Z,98493.11
2019-02-07T12:48:42.661Z,98490.76
2019-02-07T12:49:48.900Z,98490.76
2019-02-07T12:50:54.995Z,98491.81
2019-02-07T12:52:15.516Z,98491.94
2019-02-07T12:53:35.249Z,98491.94
2019-02-07T12:54:41.521Z,98486.86
2019-02-07T12:55:52.435Z,98486.86
2019-02-07T12:57:09.599Z,98486.86
2019-02-07T12:58:29.412Z,98487.70
2019-02-07T12:59:35.778Z,98488.31
2019-02-07T13:00:42.096Z,98490.48
2019-02-07T13:02:02.482Z,98483.61
2019-02-07T13:03:17.817Z,98490.09
2019-02-07T13:04:33.122Z,98476.08
2019-02-07T13:05:39.528Z,98486.39
2019-02-07T13:07:00.799Z,98488.69
2019-02-07T13:08:04.122Z,98491.36
2019-02-07T13:09:19.140Z,98490.33
2019-02-07T13:10:25.983Z,98487.98
2019-02-07T13:11:40.889Z,98489.63
2019-02-07T13:12:47.021Z,98487.80
2019-02-07T13:13:59.516Z,98480.94
2019-02-07T13:15:20.851Z,98477.56
2019-02-07T13:16:30.259Z,98477.56
2019-02-07T13:17:43.025Z,98489.88
2019-02-07T13:18:53.657Z,98489.88
2019-02-07T13:19:56.866Z,98471.02
2019-02-07T13:21:09.469Z,98473.98
2019-02-07T13:22:15.987Z,98474.17
2019-02-07T13:23:34.753Z,98473.19
2019-02-07T13:24:55.045Z,98474.70